sensor_id;sensor_type;location;lat;lon;timestamp;P1;durP1;ratioP1;P2;durP2;ratioP2
24751;SDS011;27246;52.376;4.628;2022-12-29T00:00:39;2.63;;;2.10;;
24751;SDS011;27246;52.376;4.628;2022-12-29T00:05:41;2.13;;;1.60;;
24751;SDS011;27246;52.376;4.628;2022-12-29T00:10:43;2.08;;;1.92;;
24751;SDS011;27246;52.376;4.628;2022-12-29T00:15:44;2.97;;;1.55;;
24751;SDS011;27246;52.376;4.628;2022-12-29T00:20:46;2.50;;;1.88;;
24751;SDS011;27246;52.376;4.628;2022-12-29T00:26:13;2.17;;;1.98;;
24751;SDS011;27246;52.376;4.628;2022-12-29T00:31:36;2.85;;;1.60;;
24751;SDS011;27246;52.376;4.628;2022-12-29T00:36:56;2.35;;;1.60;;
24751;SDS011;27246;52.376;4.628;2022-12-29T00:42:04;3.65;;;1.42;;
24751;SDS011;27246;52.376;4.628;2022-12-29T00:47:26;2.20;;;1.30;;
24751;SDS011;27246;52.376;4.628;2022-12-29T00:52:28;3.40;;;1.33;;
24751;SDS011;27246;52.376;4.628;2022-12-29T00:57:29;2.38;;;1.17;;
24751;SDS011;27246;52.376;4.628;2022-12-29T01:02:31;2.33;;;0.90;;
24751;SDS011;27246;52.376;4.628;2022-12-29T01:07:33;2.60;;;1.00;;
24751;SDS011;27246;52.376;4.628;2022-12-29T01:12:35;1.95;;;1.02;;
24751;SDS011;27246;52.376;4.628;2022-12-29T01:17:44;1.92;;;1.48;;
24751;SDS011;27246;52.376;4.628;2022-12-29T01:22:45;2.20;;;0.98;;
24751;SDS011;27246;52.376;4.628;2022-12-29T01:27:48;1.17;;;1.08;;
24751;SDS011;27246;52.376;4.628;2022-12-29T01:32:51;1.85;;;0.93;;
24751;SDS011;27246;52.376;4.628;2022-12-29T01:37:52;2.72;;;1.00;;
24751;SDS011;27246;52.376;4.628;2022-12-29T01:42:54;2.85;;;1.00;;
24751;SDS011;27246;52.376;4.628;2022-12-29T01:48:00;2.60;;;1.02;;
24751;SDS011;27246;52.376;4.628;2022-12-29T01:53:26;2.83;;;0.95;;
24751;SDS011;27246;52.376;4.628;2022-12-29T01:58:33;5.85;;;1.58;;
24751;SDS011;27246;52.376;4.628;2022-12-29T02:03:40;6.72;;;2.42;;
24751;SDS011;27246;52.376;4.628;2022-12-29T02:08:43;8.57;;;1.17;;
24751;SDS011;27246;52.376;4.628;2022-12-29T02:13:48;5.88;;;1.77;;
24751;SDS011;27246;52.376;4.628;2022-12-29T02:34:54;11.93;;;1.80;;
24751;SDS011;27246;52.376;4.628;2022-12-29T02:40:13;6.75;;;1.70;;
24751;SDS011;27246;52.376;4.628;2022-12-29T02:50:43;6.85;;;1.92;;
24751;SDS011;27246;52.376;4.628;2022-12-29T02:55:52;9.18;;;2.17;;
24751;SDS011;27246;52.376;4.628;2022-12-29T03:06:22;7.85;;;2.35;;
24751;SDS011;27246;52.376;4.628;2022-12-29T03:11:37;14.32;;;2.88;;
24751;SDS011;27246;52.376;4.628;2022-12-29T03:17:09;15.25;;;3.00;;
24751;SDS011;27246;52.376;4.628;2022-12-29T03:22:22;12.65;;;2.50;;
24751;SDS011;27246;52.376;4.628;2022-12-29T03:28:08;13.80;;;3.13;;
24751;SDS011;27246;52.376;4.628;2022-12-29T03:33:09;9.95;;;2.75;;
24751;SDS011;27246;52.376;4.628;2022-12-29T03:38:16;14.80;;;3.15;;
24751;SDS011;27246;52.376;4.628;2022-12-29T03:43:22;14.10;;;3.30;;
24751;SDS011;27246;52.376;4.628;2022-12-29T03:48:25;12.85;;;3.65;;
24751;SDS011;27246;52.376;4.628;2022-12-29T03:53:29;9.30;;;3.17;;
24751;SDS011;27246;52.376;4.628;2022-12-29T03:58:31;11.02;;;2.88;;
24751;SDS011;27246;52.376;4.628;2022-12-29T04:03:40;10.27;;;2.00;;
24751;SDS011;27246;52.376;4.628;2022-12-29T04:08:42;8.75;;;2.22;;
24751;SDS011;27246;52.376;4.628;2022-12-29T04:13:43;8.20;;;2.97;;
24751;SDS011;27246;52.376;4.628;2022-12-29T04:18:49;10.43;;;2.55;;
24751;SDS011;27246;52.376;4.628;2022-12-29T04:23:51;8.02;;;2.05;;
24751;SDS011;27246;52.376;4.628;2022-12-29T04:28:53;10.73;;;2.72;;
24751;SDS011;27246;52.376;4.628;2022-12-29T04:34:07;11.15;;;2.63;;
24751;SDS011;27246;52.376;4.628;2022-12-29T04:39:09;19.00;;;3.47;;
24751;SDS011;27246;52.376;4.628;2022-12-29T04:44:12;20.90;;;3.80;;
24751;SDS011;27246;52.376;4.628;2022-12-29T04:49:20;19.58;;;3.63;;
24751;SDS011;27246;52.376;4.628;2022-12-29T04:54:27;21.40;;;4.90;;
24751;SDS011;27246;52.376;4.628;2022-12-29T04:59:41;18.42;;;3.80;;
24751;SDS011;27246;52.376;4.628;2022-12-29T05:04:43;11.48;;;2.65;;
24751;SDS011;27246;52.376;4.628;2022-12-29T05:09:44;13.98;;;3.10;;
24751;SDS011;27246;52.376;4.628;2022-12-29T05:14:46;14.60;;;3.63;;
24751;SDS011;27246;52.376;4.628;2022-12-29T05:19:48;15.32;;;3.95;;
24751;SDS011;27246;52.376;4.628;2022-12-29T05:24:51;12.45;;;2.60;;
24751;SDS011;27246;52.376;4.628;2022-12-29T05:29:52;16.30;;;4.43;;
24751;SDS011;27246;52.376;4.628;2022-12-29T05:34:54;14.88;;;3.38;;
24751;SDS011;27246;52.376;4.628;2022-12-29T05:39:57;11.93;;;3.90;;
24751;SDS011;27246;52.376;4.628;2022-12-29T05:45:01;18.20;;;4.53;;
24751;SDS011;27246;52.376;4.628;2022-12-29T05:50:22;19.67;;;5.05;;
24751;SDS011;27246;52.376;4.628;2022-12-29T05:55:42;18.50;;;4.40;;
24751;SDS011;27246;52.376;4.628;2022-12-29T06:00:49;19.35;;;4.22;;
24751;SDS011;27246;52.376;4.628;2022-12-29T06:05:52;17.17;;;4.05;;
24751;SDS011;27246;52.376;4.628;2022-12-29T06:10:53;11.18;;;3.13;;
24751;SDS011;27246;52.376;4.628;2022-12-29T06:15:55;15.07;;;3.85;;
24751;SDS011;27246;52.376;4.628;2022-12-29T06:21:00;21.05;;;3.95;;
24751;SDS011;27246;52.376;4.628;2022-12-29T06:26:02;10.02;;;3.67;;
24751;SDS011;27246;52.376;4.628;2022-12-29T06:31:04;17.83;;;4.70;;
24751;SDS011;27246;52.376;4.628;2022-12-29T06:36:06;23.08;;;4.75;;
24751;SDS011;27246;52.376;4.628;2022-12-29T06:41:08;18.40;;;3.28;;
24751;SDS011;27246;52.376;4.628;2022-12-29T06:51:30;17.33;;;4.22;;
24751;SDS011;27246;52.376;4.628;2022-12-29T06:56:31;24.25;;;4.63;;
24751;SDS011;27246;52.376;4.628;2022-12-29T07:01:33;13.02;;;4.10;;
24751;SDS011;27246;52.376;4.628;2022-12-29T07:06:37;16.40;;;4.20;;
24751;SDS011;27246;52.376;4.628;2022-12-29T07:11:39;21.15;;;4.55;;
24751;SDS011;27246;52.376;4.628;2022-12-29T07:16:40;21.38;;;5.22;;
24751;SDS011;27246;52.376;4.628;2022-12-29T07:21:42;24.60;;;5.57;;
24751;SDS011;27246;52.376;4.628;2022-12-29T07:26:47;24.15;;;5.90;;
24751;SDS011;27246;52.376;4.628;2022-12-29T07:31:48;22.80;;;5.65;;
24751;SDS011;27246;52.376;4.628;2022-12-29T07:36:50;23.55;;;5.78;;
24751;SDS011;27246;52.376;4.628;2022-12-29T07:41:52;23.60;;;6.22;;
24751;SDS011;27246;52.376;4.628;2022-12-29T07:46:57;19.35;;;4.25;;
24751;SDS011;27246;52.376;4.628;2022-12-29T07:52:00;19.48;;;4.20;;
24751;SDS011;27246;52.376;4.628;2022-12-29T07:57:03;21.15;;;5.70;;
24751;SDS011;27246;52.376;4.628;2022-12-29T08:02:09;14.45;;;3.72;;
24751;SDS011;27246;52.376;4.628;2022-12-29T08:07:14;15.98;;;3.40;;
24751;SDS011;27246;52.376;4.628;2022-12-29T08:12:16;17.00;;;3.90;;
24751;SDS011;27246;52.376;4.628;2022-12-29T08:17:21;12.43;;;3.08;;
24751;SDS011;27246;52.376;4.628;2022-12-29T08:22:23;13.90;;;4.55;;
24751;SDS011;27246;52.376;4.628;2022-12-29T08:27:26;13.95;;;3.03;;
24751;SDS011;27246;52.376;4.628;2022-12-29T08:32:28;16.23;;;4.13;;
24751;SDS011;27246;52.376;4.628;2022-12-29T08:37:31;16.17;;;3.45;;
24751;SDS011;27246;52.376;4.628;2022-12-29T08:42:34;15.55;;;4.50;;
24751;SDS011;27246;52.376;4.628;2022-12-29T08:47:36;17.33;;;4.82;;
24751;SDS011;27246;52.376;4.628;2022-12-29T08:52:38;16.27;;;3.53;;
24751;SDS011;27246;52.376;4.628;2022-12-29T08:57:42;14.30;;;4.40;;
24751;SDS011;27246;52.376;4.628;2022-12-29T09:02:54;18.40;;;4.55;;
24751;SDS011;27246;52.376;4.628;2022-12-29T09:07:57;18.33;;;4.70;;
24751;SDS011;27246;52.376;4.628;2022-12-29T09:12:59;22.08;;;5.43;;
24751;SDS011;27246;52.376;4.628;2022-12-29T09:18:00;22.75;;;5.00;;
24751;SDS011;27246;52.376;4.628;2022-12-29T09:23:02;22.48;;;7.20;;
24751;SDS011;27246;52.376;4.628;2022-12-29T09:28:04;21.75;;;5.53;;
24751;SDS011;27246;52.376;4.628;2022-12-29T09:33:08;25.52;;;5.72;;
24751;SDS011;27246;52.376;4.628;2022-12-29T09:38:10;19.55;;;4.63;;
24751;SDS011;27246;52.376;4.628;2022-12-29T09:48:30;23.08;;;5.93;;
24751;SDS011;27246;52.376;4.628;2022-12-29T09:53:36;30.38;;;7.22;;
24751;SDS011;27246;52.376;4.628;2022-12-29T09:58:50;28.38;;;6.88;;
24751;SDS011;27246;52.376;4.628;2022-12-29T10:03:59;29.00;;;6.20;;
24751;SDS011;27246;52.376;4.628;2022-12-29T10:09:18;21.27;;;5.65;;
24751;SDS011;27246;52.376;4.628;2022-12-29T10:14:38;34.40;;;7.00;;
24751;SDS011;27246;52.376;4.628;2022-12-29T10:25:31;31.73;;;6.80;;
24751;SDS011;27246;52.376;4.628;2022-12-29T10:30:36;30.15;;;6.75;;
24751;SDS011;27246;52.376;4.628;2022-12-29T10:35:39;33.78;;;6.93;;
24751;SDS011;27246;52.376;4.628;2022-12-29T10:40:49;24.75;;;6.45;;
24751;SDS011;27246;52.376;4.628;2022-12-29T10:46:00;22.88;;;5.07;;
24751;SDS011;27246;52.376;4.628;2022-12-29T10:51:06;23.30;;;5.43;;
24751;SDS011;27246;52.376;4.628;2022-12-29T10:56:14;18.02;;;3.83;;
24751;SDS011;27246;52.376;4.628;2022-12-29T11:01:53;17.67;;;3.83;;
24751;SDS011;27246;52.376;4.628;2022-12-29T11:06:57;12.98;;;3.03;;
24751;SDS011;27246;52.376;4.628;2022-12-29T11:11:59;12.20;;;3.75;;
24751;SDS011;27246;52.376;4.628;2022-12-29T11:17:02;16.42;;;2.92;;
24751;SDS011;27246;52.376;4.628;2022-12-29T11:22:12;16.65;;;3.40;;
24751;SDS011;27246;52.376;4.628;2022-12-29T11:42:56;17.20;;;4.68;;
24751;SDS011;27246;52.376;4.628;2022-12-29T11:58:29;21.38;;;4.30;;
24751;SDS011;27246;52.376;4.628;2022-12-29T12:03:34;13.50;;;3.58;;
24751;SDS011;27246;52.376;4.628;2022-12-29T12:14:04;19.85;;;4.65;;
24751;SDS011;27246;52.376;4.628;2022-12-29T12:25:02;14.38;;;3.42;;
24751;SDS011;27246;52.376;4.628;2022-12-29T12:30:23;11.57;;;3.58;;
24751;SDS011;27246;52.376;4.628;2022-12-29T12:35:48;15.88;;;3.60;;
24751;SDS011;27246;52.376;4.628;2022-12-29T12:51:48;16.67;;;3.85;;
24751;SDS011;27246;52.376;4.628;2022-12-29T13:07:43;14.02;;;3.45;;
24751;SDS011;27246;52.376;4.628;2022-12-29T13:23:46;15.23;;;3.05;;
24751;SDS011;27246;52.376;4.628;2022-12-29T13:29:12;14.68;;;2.78;;
24751;SDS011;27246;52.376;4.628;2022-12-29T13:34:24;15.40;;;3.55;;
24751;SDS011;27246;52.376;4.628;2022-12-29T13:39:35;9.77;;;2.35;;
24751;SDS011;27246;52.376;4.628;2022-12-29T13:44:49;12.10;;;3.03;;
24751;SDS011;27246;52.376;4.628;2022-12-29T13:49:56;8.98;;;2.28;;
24751;SDS011;27246;52.376;4.628;2022-12-29T14:00:18;13.93;;;3.00;;
24751;SDS011;27246;52.376;4.628;2022-12-29T14:10:36;15.52;;;4.03;;
24751;SDS011;27246;52.376;4.628;2022-12-29T14:15:40;12.40;;;3.95;;
24751;SDS011;27246;52.376;4.628;2022-12-29T14:21:26;14.85;;;3.42;;
24751;SDS011;27246;52.376;4.628;2022-12-29T14:36:21;19.40;;;3.30;;
24751;SDS011;27246;52.376;4.628;2022-12-29T14:52:12;10.85;;;3.28;;
24751;SDS011;27246;52.376;4.628;2022-12-29T14:57:26;17.65;;;3.45;;
24751;SDS011;27246;52.376;4.628;2022-12-29T15:02:31;17.52;;;3.58;;
24751;SDS011;27246;52.376;4.628;2022-12-29T15:07:36;21.05;;;4.90;;
24751;SDS011;27246;52.376;4.628;2022-12-29T15:12:39;17.98;;;4.63;;
24751;SDS011;27246;52.376;4.628;2022-12-29T15:17:45;13.98;;;4.00;;
24751;SDS011;27246;52.376;4.628;2022-12-29T15:22:52;19.58;;;2.97;;
24751;SDS011;27246;52.376;4.628;2022-12-29T15:27:57;17.02;;;3.38;;
24751;SDS011;27246;52.376;4.628;2022-12-29T15:33:17;15.23;;;3.87;;
24751;SDS011;27246;52.376;4.628;2022-12-29T15:38:30;19.40;;;3.97;;
24751;SDS011;27246;52.376;4.628;2022-12-29T15:43:54;19.90;;;3.33;;
24751;SDS011;27246;52.376;4.628;2022-12-29T15:49:07;15.88;;;4.00;;
24751;SDS011;27246;52.376;4.628;2022-12-29T15:54:17;20.48;;;4.55;;
24751;SDS011;27246;52.376;4.628;2022-12-29T15:59:30;19.52;;;5.05;;
24751;SDS011;27246;52.376;4.628;2022-12-29T16:04:33;15.00;;;3.72;;
24751;SDS011;27246;52.376;4.628;2022-12-29T16:09:56;17.95;;;4.78;;
24751;SDS011;27246;52.376;4.628;2022-12-29T16:14:59;19.00;;;4.22;;
24751;SDS011;27246;52.376;4.628;2022-12-29T16:20:05;23.13;;;5.45;;
24751;SDS011;27246;52.376;4.628;2022-12-29T16:35:28;21.95;;;4.57;;
24751;SDS011;27246;52.376;4.628;2022-12-29T16:40:52;21.90;;;4.55;;
24751;SDS011;27246;52.376;4.628;2022-12-29T16:51:04;18.33;;;4.82;;
24751;SDS011;27246;52.376;4.628;2022-12-29T16:56:15;12.15;;;4.40;;
24751;SDS011;27246;52.376;4.628;2022-12-29T17:01:19;16.92;;;3.13;;
24751;SDS011;27246;52.376;4.628;2022-12-29T17:06:22;18.10;;;3.83;;
24751;SDS011;27246;52.376;4.628;2022-12-29T17:16:44;12.73;;;4.18;;
24751;SDS011;27246;52.376;4.628;2022-12-29T17:21:46;21.80;;;5.53;;
24751;SDS011;27246;52.376;4.628;2022-12-29T17:26:48;19.10;;;5.03;;
24751;SDS011;27246;52.376;4.628;2022-12-29T17:31:52;16.67;;;4.20;;
24751;SDS011;27246;52.376;4.628;2022-12-29T17:36:54;18.17;;;3.80;;
24751;SDS011;27246;52.376;4.628;2022-12-29T17:41:56;15.60;;;3.58;;
24751;SDS011;27246;52.376;4.628;2022-12-29T17:46:57;19.25;;;4.43;;
24751;SDS011;27246;52.376;4.628;2022-12-29T17:51:59;16.00;;;4.32;;
24751;SDS011;27246;52.376;4.628;2022-12-29T17:57:01;17.35;;;4.10;;
24751;SDS011;27246;52.376;4.628;2022-12-29T18:02:02;22.30;;;3.90;;
24751;SDS011;27246;52.376;4.628;2022-12-29T18:07:08;16.88;;;4.95;;
24751;SDS011;27246;52.376;4.628;2022-12-29T18:17:44;20.95;;;5.13;;
24751;SDS011;27246;52.376;4.628;2022-12-29T18:22:46;22.92;;;5.05;;
24751;SDS011;27246;52.376;4.628;2022-12-29T18:27:47;26.60;;;6.40;;
24751;SDS011;27246;52.376;4.628;2022-12-29T18:32:49;23.17;;;5.57;;
24751;SDS011;27246;52.376;4.628;2022-12-29T18:37:53;19.88;;;5.20;;
24751;SDS011;27246;52.376;4.628;2022-12-29T18:42:54;21.55;;;5.43;;
24751;SDS011;27246;52.376;4.628;2022-12-29T18:47:56;20.83;;;4.47;;
24751;SDS011;27246;52.376;4.628;2022-12-29T18:53:00;19.13;;;4.25;;
24751;SDS011;27246;52.376;4.628;2022-12-29T18:58:04;27.10;;;6.15;;
24751;SDS011;27246;52.376;4.628;2022-12-29T19:03:06;21.15;;;5.40;;
24751;SDS011;27246;52.376;4.628;2022-12-29T19:08:08;24.02;;;5.60;;
24751;SDS011;27246;52.376;4.628;2022-12-29T19:13:17;20.83;;;4.78;;
24751;SDS011;27246;52.376;4.628;2022-12-29T19:18:24;27.67;;;6.10;;
24751;SDS011;27246;52.376;4.628;2022-12-29T19:23:50;27.90;;;7.60;;
24751;SDS011;27246;52.376;4.628;2022-12-29T19:28:53;17.33;;;4.90;;
24751;SDS011;27246;52.376;4.628;2022-12-29T19:33:54;19.08;;;5.25;;
24751;SDS011;27246;52.376;4.628;2022-12-29T19:38:56;24.50;;;5.97;;
24751;SDS011;27246;52.376;4.628;2022-12-29T19:43:59;24.33;;;4.40;;
24751;SDS011;27246;52.376;4.628;2022-12-29T19:49:01;20.90;;;5.10;;
24751;SDS011;27246;52.376;4.628;2022-12-29T19:54:02;19.63;;;3.83;;
24751;SDS011;27246;52.376;4.628;2022-12-29T19:59:07;21.02;;;5.50;;
24751;SDS011;27246;52.376;4.628;2022-12-29T20:04:09;18.30;;;4.60;;
24751;SDS011;27246;52.376;4.628;2022-12-29T20:09:10;20.80;;;5.25;;
24751;SDS011;27246;52.376;4.628;2022-12-29T20:14:20;20.02;;;5.03;;
24751;SDS011;27246;52.376;4.628;2022-12-29T20:19:27;18.90;;;5.38;;
24751;SDS011;27246;52.376;4.628;2022-12-29T20:24:31;21.52;;;5.00;;
24751;SDS011;27246;52.376;4.628;2022-12-29T20:29:37;19.73;;;4.50;;
24751;SDS011;27246;52.376;4.628;2022-12-29T20:34:41;14.20;;;3.78;;
24751;SDS011;27246;52.376;4.628;2022-12-29T20:39:46;16.75;;;3.80;;
24751;SDS011;27246;52.376;4.628;2022-12-29T20:44:47;22.05;;;4.90;;
24751;SDS011;27246;52.376;4.628;2022-12-29T20:49:53;24.27;;;5.25;;
24751;SDS011;27246;52.376;4.628;2022-12-29T20:54:56;17.77;;;5.38;;
24751;SDS011;27246;52.376;4.628;2022-12-29T20:59:58;17.95;;;4.28;;
24751;SDS011;27246;52.376;4.628;2022-12-29T21:05:00;19.42;;;4.90;;
24751;SDS011;27246;52.376;4.628;2022-12-29T21:10:21;13.45;;;3.67;;
24751;SDS011;27246;52.376;4.628;2022-12-29T21:15:23;20.48;;;4.40;;
24751;SDS011;27246;52.376;4.628;2022-12-29T21:20:25;14.00;;;3.63;;
24751;SDS011;27246;52.376;4.628;2022-12-29T21:25:32;17.42;;;3.55;;
24751;SDS011;27246;52.376;4.628;2022-12-29T21:30:37;17.92;;;3.20;;
24751;SDS011;27246;52.376;4.628;2022-12-29T21:35:40;19.00;;;4.75;;
24751;SDS011;27246;52.376;4.628;2022-12-29T21:40:42;24.25;;;4.07;;
24751;SDS011;27246;52.376;4.628;2022-12-29T21:45:47;12.25;;;4.05;;
24751;SDS011;27246;52.376;4.628;2022-12-29T21:50:51;18.77;;;4.07;;
24751;SDS011;27246;52.376;4.628;2022-12-29T21:56:14;17.08;;;3.60;;
24751;SDS011;27246;52.376;4.628;2022-12-29T22:01:17;16.20;;;3.88;;
24751;SDS011;27246;52.376;4.628;2022-12-29T22:06:38;14.57;;;3.65;;
24751;SDS011;27246;52.376;4.628;2022-12-29T22:11:58;20.23;;;4.78;;
24751;SDS011;27246;52.376;4.628;2022-12-29T22:17:18;14.13;;;3.95;;
24751;SDS011;27246;52.376;4.628;2022-12-29T22:22:24;15.77;;;4.38;;
24751;SDS011;27246;52.376;4.628;2022-12-29T22:27:25;14.38;;;4.00;;
24751;SDS011;27246;52.376;4.628;2022-12-29T22:32:27;20.52;;;4.10;;
24751;SDS011;27246;52.376;4.628;2022-12-29T22:37:29;14.65;;;3.15;;
24751;SDS011;27246;52.376;4.628;2022-12-29T22:42:31;16.52;;;3.83;;
24751;SDS011;27246;52.376;4.628;2022-12-29T22:47:32;20.52;;;4.47;;
24751;SDS011;27246;52.376;4.628;2022-12-29T22:52:34;21.02;;;3.90;;
24751;SDS011;27246;52.376;4.628;2022-12-29T22:57:42;16.67;;;3.88;;
24751;SDS011;27246;52.376;4.628;2022-12-29T23:02:44;15.70;;;3.75;;
24751;SDS011;27246;52.376;4.628;2022-12-29T23:07:46;19.65;;;4.20;;
24751;SDS011;27246;52.376;4.628;2022-12-29T23:12:48;15.93;;;3.35;;
24751;SDS011;27246;52.376;4.628;2022-12-29T23:17:50;17.05;;;4.47;;
24751;SDS011;27246;52.376;4.628;2022-12-29T23:22:55;13.38;;;3.92;;
24751;SDS011;27246;52.376;4.628;2022-12-29T23:27:59;19.42;;;3.80;;
24751;SDS011;27246;52.376;4.628;2022-12-29T23:33:01;15.00;;;3.13;;
24751;SDS011;27246;52.376;4.628;2022-12-29T23:38:03;21.73;;;3.78;;
24751;SDS011;27246;52.376;4.628;2022-12-29T23:43:04;18.20;;;4.10;;
24751;SDS011;27246;52.376;4.628;2022-12-29T23:48:06;21.60;;;4.47;;
24751;SDS011;27246;52.376;4.628;2022-12-29T23:53:08;15.95;;;4.20;;
24751;SDS011;27246;52.376;4.628;2022-12-29T23:58:11;22.58;;;5.07;;
